sensor_id;sensor_type;location;lat;lon;timestamp;temperature;humidity
36924;DHT22;22841;50.252;18.688;2024-02-23T00:01:17;8.40;99.90
36924;DHT22;22841;50.252;18.688;2024-02-23T00:03:44;8.40;99.90
36924;DHT22;22841;50.252;18.688;2024-02-23T00:06:10;8.40;99.90
36924;DHT22;22841;50.252;18.688;2024-02-23T00:08:36;8.40;99.90
36924;DHT22;22841;50.252;18.688;2024-02-23T00:11:03;8.40;99.90
36924;DHT22;22841;50.252;18.688;2024-02-23T00:13:29;8.40;99.90
36924;DHT22;22841;50.252;18.688;2024-02-23T00:15:55;8.40;99.90
36924;DHT22;22841;50.252;18.688;2024-02-23T00:18:21;8.40;99.90
36924;DHT22;22841;50.252;18.688;2024-02-23T00:20:47;8.40;99.90
36924;DHT22;22841;50.252;18.688;2024-02-23T00:23:14;8.30;99.90
36924;DHT22;22841;50.252;18.688;2024-02-23T00:25:40;8.30;99.90
36924;DHT22;22841;50.252;18.688;2024-02-23T00:28:07;8.30;99.90
36924;DHT22;22841;50.252;18.688;2024-02-23T00:30:33;8.20;99.90
36924;DHT22;22841;50.252;18.688;2024-02-23T00:32:59;8.20;99.90
36924;DHT22;22841;50.252;18.688;2024-02-23T00:35:25;8.10;99.90
36924;DHT22;22841;50.252;18.688;2024-02-23T00:37:51;8.10;99.90
36924;DHT22;22841;50.252;18.688;2024-02-23T00:40:17;8.10;99.90
36924;DHT22;22841;50.252;18.688;2024-02-23T00:42:44;8.00;99.90
36924;DHT22;22841;50.252;18.688;2024-02-23T00:45:10;8.00;99.90
36924;DHT22;22841;50.252;18.688;2024-02-23T00:47:36;8.00;99.90
36924;DHT22;22841;50.252;18.688;2024-02-23T00:50:04;7.90;99.90
36924;DHT22;22841;50.252;18.688;2024-02-23T00:52:30;7.90;99.90
36924;DHT22;22841;50.252;18.688;2024-02-23T00:54:56;7.90;99.90
36924;DHT22;22841;50.252;18.688;2024-02-23T00:57:22;8.00;99.90
36924;DHT22;22841;50.252;18.688;2024-02-23T00:59:53;8.10;99.90
36924;DHT22;22841;50.252;18.688;2024-02-23T01:02:19;8.20;99.90
36924;DHT22;22841;50.252;18.688;2024-02-23T01:04:45;8.20;99.90
36924;DHT22;22841;50.252;18.688;2024-02-23T01:07:11;8.30;99.90
36924;DHT22;22841;50.252;18.688;2024-02-23T01:09:37;8.20;99.90
36924;DHT22;22841;50.252;18.688;2024-02-23T01:12:03;8.30;99.90
36924;DHT22;22841;50.252;18.688;2024-02-23T01:14:30;8.30;99.90
36924;DHT22;22841;50.252;18.688;2024-02-23T01:16:56;8.30;99.90
36924;DHT22;22841;50.252;18.688;2024-02-23T01:19:22;8.30;99.90
36924;DHT22;22841;50.252;18.688;2024-02-23T01:21:49;8.30;99.90
36924;DHT22;22841;50.252;18.688;2024-02-23T01:24:22;8.30;99.90
36924;DHT22;22841;50.252;18.688;2024-02-23T01:26:48;8.30;99.90
36924;DHT22;22841;50.252;18.688;2024-02-23T01:29:14;8.30;99.90
36924;DHT22;22841;50.252;18.688;2024-02-23T01:31:42;8.30;99.90
36924;DHT22;22841;50.252;18.688;2024-02-23T01:34:08;8.30;99.90
36924;DHT22;22841;50.252;18.688;2024-02-23T01:36:34;8.30;99.90
36924;DHT22;22841;50.252;18.688;2024-02-23T01:39:02;8.20;99.90
36924;DHT22;22841;50.252;18.688;2024-02-23T01:41:28;8.20;99.90
36924;DHT22;22841;50.252;18.688;2024-02-23T01:43:54;8.20;99.90
36924;DHT22;22841;50.252;18.688;2024-02-23T01:46:20;8.20;99.90
36924;DHT22;22841;50.252;18.688;2024-02-23T01:48:47;8.10;99.90
36924;DHT22;22841;50.252;18.688;2024-02-23T01:51:13;8.10;99.90
36924;DHT22;22841;50.252;18.688;2024-02-23T01:53:40;8.10;99.90
36924;DHT22;22841;50.252;18.688;2024-02-23T01:56:06;8.10;99.90
36924;DHT22;22841;50.252;18.688;2024-02-23T01:58:35;8.10;99.90
36924;DHT22;22841;50.252;18.688;2024-02-23T02:01:01;8.00;99.90
36924;DHT22;22841;50.252;18.688;2024-02-23T02:03:27;8.00;99.90
36924;DHT22;22841;50.252;18.688;2024-02-23T02:05:55;7.90;99.90
36924;DHT22;22841;50.252;18.688;2024-02-23T02:08:25;8.00;99.90
36924;DHT22;22841;50.252;18.688;2024-02-23T02:10:52;7.90;99.90
36924;DHT22;22841;50.252;18.688;2024-02-23T02:13:18;7.90;99.90
36924;DHT22;22841;50.252;18.688;2024-02-23T02:15:44;7.90;99.90
36924;DHT22;22841;50.252;18.688;2024-02-23T02:18:10;8.00;99.90
36924;DHT22;22841;50.252;18.688;2024-02-23T02:20:37;7.80;99.90
36924;DHT22;22841;50.252;18.688;2024-02-23T02:23:07;7.80;99.90
36924;DHT22;22841;50.252;18.688;2024-02-23T02:25:33;7.80;99.90
36924;DHT22;22841;50.252;18.688;2024-02-23T02:27:59;7.80;99.90
36924;DHT22;22841;50.252;18.688;2024-02-23T02:30:25;7.80;99.90
36924;DHT22;22841;50.252;18.688;2024-02-23T02:32:51;7.80;99.90
36924;DHT22;22841;50.252;18.688;2024-02-23T02:35:17;7.80;99.90
36924;DHT22;22841;50.252;18.688;2024-02-23T02:37:43;7.80;99.90
36924;DHT22;22841;50.252;18.688;2024-02-23T02:40:10;7.80;99.90
36924;DHT22;22841;50.252;18.688;2024-02-23T02:42:36;7.80;99.90
36924;DHT22;22841;50.252;18.688;2024-02-23T02:45:02;7.80;99.90
36924;DHT22;22841;50.252;18.688;2024-02-23T02:47:28;7.70;99.90
36924;DHT22;22841;50.252;18.688;2024-02-23T02:49:54;7.70;99.90
36924;DHT22;22841;50.252;18.688;2024-02-23T02:52:21;7.70;99.90
36924;DHT22;22841;50.252;18.688;2024-02-23T02:54:49;7.70;99.90
36924;DHT22;22841;50.252;18.688;2024-02-23T02:57:15;7.60;99.90
36924;DHT22;22841;50.252;18.688;2024-02-23T02:59:41;7.60;99.90
36924;DHT22;22841;50.252;18.688;2024-02-23T03:02:08;7.60;99.90
36924;DHT22;22841;50.252;18.688;2024-02-23T03:04:34;7.60;99.90
36924;DHT22;22841;50.252;18.688;2024-02-23T03:07:00;7.60;99.90
36924;DHT22;22841;50.252;18.688;2024-02-23T03:09:26;7.60;99.90
36924;DHT22;22841;50.252;18.688;2024-02-23T03:11:52;7.60;99.90
36924;DHT22;22841;50.252;18.688;2024-02-23T03:14:18;7.60;99.90
36924;DHT22;22841;50.252;18.688;2024-02-23T03:16:46;7.70;99.90
36924;DHT22;22841;50.252;18.688;2024-02-23T03:19:15;7.60;99.90
36924;DHT22;22841;50.252;18.688;2024-02-23T03:21:41;7.60;99.90
36924;DHT22;22841;50.252;18.688;2024-02-23T03:24:07;7.70;99.90
36924;DHT22;22841;50.252;18.688;2024-02-23T03:26:33;7.70;99.90
36924;DHT22;22841;50.252;18.688;2024-02-23T03:28:59;7.60;99.90
36924;DHT22;22841;50.252;18.688;2024-02-23T03:31:25;7.60;99.90
36924;DHT22;22841;50.252;18.688;2024-02-23T03:33:51;7.60;99.90
36924;DHT22;22841;50.252;18.688;2024-02-23T03:36:17;7.50;99.90
36924;DHT22;22841;50.252;18.688;2024-02-23T03:38:43;7.50;99.90
36924;DHT22;22841;50.252;18.688;2024-02-23T03:41:09;7.50;99.90
36924;DHT22;22841;50.252;18.688;2024-02-23T03:43:35;7.50;99.90
36924;DHT22;22841;50.252;18.688;2024-02-23T03:46:04;7.50;99.90
36924;DHT22;22841;50.252;18.688;2024-02-23T03:48:31;7.50;99.90
36924;DHT22;22841;50.252;18.688;2024-02-23T03:50:58;7.40;99.90
36924;DHT22;22841;50.252;18.688;2024-02-23T03:53:24;7.40;99.90
36924;DHT22;22841;50.252;18.688;2024-02-23T03:55:50;7.40;99.90
36924;DHT22;22841;50.252;18.688;2024-02-23T03:58:16;7.40;99.90
36924;DHT22;22841;50.252;18.688;2024-02-23T04:00:43;7.40;99.90
36924;DHT22;22841;50.252;18.688;2024-02-23T04:03:09;7.40;99.90
36924;DHT22;22841;50.252;18.688;2024-02-23T04:05:36;7.40;99.90
36924;DHT22;22841;50.252;18.688;2024-02-23T04:08:02;7.40;99.90
36924;DHT22;22841;50.252;18.688;2024-02-23T04:10:28;7.30;99.90
36924;DHT22;22841;50.252;18.688;2024-02-23T04:12:54;7.40;99.90
36924;DHT22;22841;50.252;18.688;2024-02-23T04:15:20;7.40;99.90
36924;DHT22;22841;50.252;18.688;2024-02-23T04:17:46;7.40;99.90
36924;DHT22;22841;50.252;18.688;2024-02-23T04:20:12;7.40;99.90
36924;DHT22;22841;50.252;18.688;2024-02-23T04:22:39;7.40;99.90
36924;DHT22;22841;50.252;18.688;2024-02-23T04:25:05;7.40;99.90
36924;DHT22;22841;50.252;18.688;2024-02-23T04:27:32;7.40;99.90
36924;DHT22;22841;50.252;18.688;2024-02-23T04:29:58;7.30;99.90
36924;DHT22;22841;50.252;18.688;2024-02-23T04:32:24;7.40;99.90
36924;DHT22;22841;50.252;18.688;2024-02-23T04:34:50;7.30;99.90
36924;DHT22;22841;50.252;18.688;2024-02-23T04:37:16;7.30;99.90
36924;DHT22;22841;50.252;18.688;2024-02-23T04:39:44;7.30;99.90
36924;DHT22;22841;50.252;18.688;2024-02-23T04:42:10;7.30;99.90
36924;DHT22;22841;50.252;18.688;2024-02-23T04:44:36;7.30;99.90
36924;DHT22;22841;50.252;18.688;2024-02-23T04:47:02;7.30;99.90
36924;DHT22;22841;50.252;18.688;2024-02-23T04:49:28;7.40;99.90
36924;DHT22;22841;50.252;18.688;2024-02-23T04:51:54;7.30;99.90
36924;DHT22;22841;50.252;18.688;2024-02-23T04:54:20;7.30;99.90
36924;DHT22;22841;50.252;18.688;2024-02-23T04:56:47;7.30;99.90
36924;DHT22;22841;50.252;18.688;2024-02-23T04:59:14;7.30;99.90
36924;DHT22;22841;50.252;18.688;2024-02-23T05:01:40;7.30;99.90
36924;DHT22;22841;50.252;18.688;2024-02-23T05:04:06;7.30;99.90
36924;DHT22;22841;50.252;18.688;2024-02-23T05:06:32;7.40;99.90
36924;DHT22;22841;50.252;18.688;2024-02-23T05:08:58;7.30;99.90
36924;DHT22;22841;50.252;18.688;2024-02-23T05:11:25;7.30;99.90
36924;DHT22;22841;50.252;18.688;2024-02-23T05:13:51;7.30;99.90
36924;DHT22;22841;50.252;18.688;2024-02-23T05:16:17;7.30;99.90
36924;DHT22;22841;50.252;18.688;2024-02-23T05:18:43;7.30;99.90
36924;DHT22;22841;50.252;18.688;2024-02-23T05:21:09;7.30;99.90
36924;DHT22;22841;50.252;18.688;2024-02-23T05:23:35;7.30;99.90
36924;DHT22;22841;50.252;18.688;2024-02-23T05:26:02;7.30;99.90
36924;DHT22;22841;50.252;18.688;2024-02-23T05:28:28;7.30;99.90
36924;DHT22;22841;50.252;18.688;2024-02-23T05:30:54;7.30;99.90
36924;DHT22;22841;50.252;18.688;2024-02-23T05:33:22;7.20;99.90
36924;DHT22;22841;50.252;18.688;2024-02-23T05:35:48;7.20;99.90
36924;DHT22;22841;50.252;18.688;2024-02-23T05:38:15;7.20;99.90
36924;DHT22;22841;50.252;18.688;2024-02-23T05:40:41;7.20;99.90
36924;DHT22;22841;50.252;18.688;2024-02-23T05:43:07;7.20;99.90
36924;DHT22;22841;50.252;18.688;2024-02-23T05:45:33;7.30;99.90
36924;DHT22;22841;50.252;18.688;2024-02-23T05:48:00;7.30;99.90
36924;DHT22;22841;50.252;18.688;2024-02-23T05:50:26;7.30;99.90
36924;DHT22;22841;50.252;18.688;2024-02-23T05:52:54;7.20;99.90
36924;DHT22;22841;50.252;18.688;2024-02-23T05:55:21;7.20;99.90
36924;DHT22;22841;50.252;18.688;2024-02-23T05:57:47;7.30;99.90
36924;DHT22;22841;50.252;18.688;2024-02-23T06:00:13;7.30;99.90
36924;DHT22;22841;50.252;18.688;2024-02-23T06:02:40;7.20;99.90
36924;DHT22;22841;50.252;18.688;2024-02-23T06:05:07;7.20;99.90
36924;DHT22;22841;50.252;18.688;2024-02-23T06:07:34;7.20;99.90
36924;DHT22;22841;50.252;18.688;2024-02-23T06:10:00;7.20;99.90
36924;DHT22;22841;50.252;18.688;2024-02-23T06:12:27;7.20;99.90
36924;DHT22;22841;50.252;18.688;2024-02-23T06:14:53;7.20;99.90
36924;DHT22;22841;50.252;18.688;2024-02-23T06:17:21;7.20;99.90
36924;DHT22;22841;50.252;18.688;2024-02-23T06:19:48;7.30;99.90
36924;DHT22;22841;50.252;18.688;2024-02-23T06:22:14;7.30;99.90
36924;DHT22;22841;50.252;18.688;2024-02-23T06:24:43;7.20;99.90
36924;DHT22;22841;50.252;18.688;2024-02-23T06:27:09;7.30;99.90
36924;DHT22;22841;50.252;18.688;2024-02-23T06:29:35;7.30;99.90
36924;DHT22;22841;50.252;18.688;2024-02-23T06:32:02;7.30;99.90
36924;DHT22;22841;50.252;18.688;2024-02-23T06:34:28;7.30;99.90
36924;DHT22;22841;50.252;18.688;2024-02-23T06:36:55;7.30;99.90
36924;DHT22;22841;50.252;18.688;2024-02-23T06:39:21;7.30;99.90
36924;DHT22;22841;50.252;18.688;2024-02-23T06:41:47;7.30;99.90
36924;DHT22;22841;50.252;18.688;2024-02-23T06:44:13;7.30;99.90
36924;DHT22;22841;50.252;18.688;2024-02-23T06:46:39;7.30;99.90
36924;DHT22;22841;50.252;18.688;2024-02-23T06:49:07;7.40;99.90
36924;DHT22;22841;50.252;18.688;2024-02-23T06:51:33;7.30;99.90
36924;DHT22;22841;50.252;18.688;2024-02-23T06:53:59;7.20;99.90
36924;DHT22;22841;50.252;18.688;2024-02-23T06:56:25;7.40;99.90
36924;DHT22;22841;50.252;18.688;2024-02-23T06:58:51;7.30;99.90
36924;DHT22;22841;50.252;18.688;2024-02-23T07:01:19;7.30;99.90
36924;DHT22;22841;50.252;18.688;2024-02-23T07:03:46;7.30;99.90
36924;DHT22;22841;50.252;18.688;2024-02-23T07:06:14;7.30;99.90
36924;DHT22;22841;50.252;18.688;2024-02-23T07:08:44;7.30;99.90
36924;DHT22;22841;50.252;18.688;2024-02-23T07:11:11;7.30;99.90
36924;DHT22;22841;50.252;18.688;2024-02-23T07:13:37;7.30;99.90
36924;DHT22;22841;50.252;18.688;2024-02-23T07:16:04;7.30;99.90
36924;DHT22;22841;50.252;18.688;2024-02-23T07:18:30;7.40;99.90
36924;DHT22;22841;50.252;18.688;2024-02-23T07:20:56;7.40;99.90
36924;DHT22;22841;50.252;18.688;2024-02-23T07:23:22;7.40;99.90
36924;DHT22;22841;50.252;18.688;2024-02-23T07:25:48;7.40;99.90
36924;DHT22;22841;50.252;18.688;2024-02-23T07:28:16;7.40;99.90
36924;DHT22;22841;50.252;18.688;2024-02-23T07:30:45;7.50;99.90
36924;DHT22;22841;50.252;18.688;2024-02-23T07:33:12;7.50;99.90
36924;DHT22;22841;50.252;18.688;2024-02-23T07:35:38;7.50;99.90
36924;DHT22;22841;50.252;18.688;2024-02-23T07:38:04;7.50;99.90
36924;DHT22;22841;50.252;18.688;2024-02-23T07:40:30;7.50;99.90
36924;DHT22;22841;50.252;18.688;2024-02-23T07:42:57;7.50;99.90
36924;DHT22;22841;50.252;18.688;2024-02-23T07:45:24;7.60;99.90
36924;DHT22;22841;50.252;18.688;2024-02-23T07:47:50;7.50;99.90
36924;DHT22;22841;50.252;18.688;2024-02-23T07:50:16;7.50;99.90
36924;DHT22;22841;50.252;18.688;2024-02-23T07:52:44;7.50;99.90
36924;DHT22;22841;50.252;18.688;2024-02-23T07:55:10;7.60;99.90
36924;DHT22;22841;50.252;18.688;2024-02-23T07:57:36;7.60;99.90
36924;DHT22;22841;50.252;18.688;2024-02-23T08:00:04;7.70;99.90
36924;DHT22;22841;50.252;18.688;2024-02-23T08:02:30;7.70;99.90
36924;DHT22;22841;50.252;18.688;2024-02-23T08:04:56;7.70;99.90
36924;DHT22;22841;50.252;18.688;2024-02-23T08:07:23;7.70;99.90
36924;DHT22;22841;50.252;18.688;2024-02-23T08:09:49;7.70;99.90
36924;DHT22;22841;50.252;18.688;2024-02-23T08:12:15;7.70;99.90
36924;DHT22;22841;50.252;18.688;2024-02-23T08:14:41;7.80;99.90
36924;DHT22;22841;50.252;18.688;2024-02-23T08:17:08;7.80;99.90
36924;DHT22;22841;50.252;18.688;2024-02-23T08:19:34;7.80;99.90
36924;DHT22;22841;50.252;18.688;2024-02-23T08:22:00;7.80;99.90
36924;DHT22;22841;50.252;18.688;2024-02-23T08:24:26;7.80;99.90
36924;DHT22;22841;50.252;18.688;2024-02-23T08:26:52;7.80;99.90
36924;DHT22;22841;50.252;18.688;2024-02-23T08:29:19;7.80;99.90
36924;DHT22;22841;50.252;18.688;2024-02-23T08:31:45;7.80;99.90
36924;DHT22;22841;50.252;18.688;2024-02-23T08:34:12;7.80;99.90
36924;DHT22;22841;50.252;18.688;2024-02-23T08:36:38;7.80;99.90
36924;DHT22;22841;50.252;18.688;2024-02-23T08:39:04;7.80;99.90
36924;DHT22;22841;50.252;18.688;2024-02-23T08:41:30;7.80;99.90
36924;DHT22;22841;50.252;18.688;2024-02-23T08:43:56;7.90;99.90
36924;DHT22;22841;50.252;18.688;2024-02-23T08:46:22;7.90;99.90
36924;DHT22;22841;50.252;18.688;2024-02-23T08:48:48;7.80;99.90
36924;DHT22;22841;50.252;18.688;2024-02-23T08:51:15;7.90;99.90
36924;DHT22;22841;50.252;18.688;2024-02-23T08:53:41;7.90;99.90
36924;DHT22;22841;50.252;18.688;2024-02-23T08:56:07;8.00;99.90
36924;DHT22;22841;50.252;18.688;2024-02-23T08:58:34;8.00;99.90
36924;DHT22;22841;50.252;18.688;2024-02-23T09:01:00;8.00;99.90
36924;DHT22;22841;50.252;18.688;2024-02-23T09:03:26;8.00;99.90
36924;DHT22;22841;50.252;18.688;2024-02-23T09:05:52;8.00;99.90
36924;DHT22;22841;50.252;18.688;2024-02-23T09:08:18;8.10;99.90
36924;DHT22;22841;50.252;18.688;2024-02-23T09:10:44;8.10;99.90
36924;DHT22;22841;50.252;18.688;2024-02-23T09:13:11;8.20;99.90
36924;DHT22;22841;50.252;18.688;2024-02-23T09:15:37;8.20;99.90
36924;DHT22;22841;50.252;18.688;2024-02-23T09:18:03;8.20;99.90
36924;DHT22;22841;50.252;18.688;2024-02-23T09:20:30;8.30;99.90
36924;DHT22;22841;50.252;18.688;2024-02-23T09:22:56;8.40;99.90
36924;DHT22;22841;50.252;18.688;2024-02-23T09:25:22;8.50;99.90
36924;DHT22;22841;50.252;18.688;2024-02-23T09:27:48;8.60;99.90
36924;DHT22;22841;50.252;18.688;2024-02-23T09:30:14;8.60;99.90
36924;DHT22;22841;50.252;18.688;2024-02-23T09:32:41;8.70;99.90
36924;DHT22;22841;50.252;18.688;2024-02-23T09:35:07;8.80;99.90
36924;DHT22;22841;50.252;18.688;2024-02-23T09:37:33;8.90;99.90
36924;DHT22;22841;50.252;18.688;2024-02-23T09:39:59;8.90;99.90
36924;DHT22;22841;50.252;18.688;2024-02-23T09:42:28;8.90;99.90
36924;DHT22;22841;50.252;18.688;2024-02-23T09:44:59;8.90;99.90
36924;DHT22;22841;50.252;18.688;2024-02-23T09:47:29;8.90;99.90
36924;DHT22;22841;50.252;18.688;2024-02-23T09:49:55;8.90;99.90
36924;DHT22;22841;50.252;18.688;2024-02-23T09:52:22;8.80;99.90
36924;DHT22;22841;50.252;18.688;2024-02-23T09:54:49;8.80;99.90
36924;DHT22;22841;50.252;18.688;2024-02-23T09:57:16;8.80;99.90
36924;DHT22;22841;50.252;18.688;2024-02-23T09:59:44;8.80;99.90
36924;DHT22;22841;50.252;18.688;2024-02-23T10:02:15;8.90;99.90
36924;DHT22;22841;50.252;18.688;2024-02-23T10:04:42;8.90;99.90
36924;DHT22;22841;50.252;18.688;2024-02-23T10:07:09;8.90;99.90
36924;DHT22;22841;50.252;18.688;2024-02-23T10:09:36;8.90;99.90
36924;DHT22;22841;50.252;18.688;2024-02-23T10:12:03;8.90;99.90
36924;DHT22;22841;50.252;18.688;2024-02-23T10:14:29;8.90;99.90
36924;DHT22;22841;50.252;18.688;2024-02-23T10:16:55;8.90;99.90
36924;DHT22;22841;50.252;18.688;2024-02-23T10:19:22;8.90;99.90
36924;DHT22;22841;50.252;18.688;2024-02-23T10:21:48;8.90;99.90
36924;DHT22;22841;50.252;18.688;2024-02-23T10:24:18;9.00;99.90
36924;DHT22;22841;50.252;18.688;2024-02-23T10:26:44;9.00;99.90
36924;DHT22;22841;50.252;18.688;2024-02-23T10:29:10;9.00;99.90
36924;DHT22;22841;50.252;18.688;2024-02-23T10:31:36;8.90;99.90
36924;DHT22;22841;50.252;18.688;2024-02-23T10:34:14;8.90;99.90
36924;DHT22;22841;50.252;18.688;2024-02-23T10:36:42;9.00;99.90
36924;DHT22;22841;50.252;18.688;2024-02-23T10:39:17;9.00;99.90
36924;DHT22;22841;50.252;18.688;2024-02-23T10:41:51;9.00;99.90
36924;DHT22;22841;50.252;18.688;2024-02-23T10:44:22;8.90;99.90
36924;DHT22;22841;50.252;18.688;2024-02-23T10:46:49;8.90;99.90
36924;DHT22;22841;50.252;18.688;2024-02-23T10:49:17;8.90;99.90
36924;DHT22;22841;50.252;18.688;2024-02-23T10:51:46;8.90;99.90
36924;DHT22;22841;50.252;18.688;2024-02-23T10:54:14;8.90;99.90
36924;DHT22;22841;50.252;18.688;2024-02-23T10:56:43;8.90;99.90
36924;DHT22;22841;50.252;18.688;2024-02-23T10:59:12;8.90;99.90
36924;DHT22;22841;50.252;18.688;2024-02-23T11:01:38;8.90;99.90
36924;DHT22;22841;50.252;18.688;2024-02-23T11:04:06;8.90;99.90
36924;DHT22;22841;50.252;18.688;2024-02-23T11:06:36;8.90;99.90
36924;DHT22;22841;50.252;18.688;2024-02-23T11:09:06;8.90;99.90
36924;DHT22;22841;50.252;18.688;2024-02-23T11:11:34;8.90;99.90
36924;DHT22;22841;50.252;18.688;2024-02-23T11:14:03;8.90;99.90
36924;DHT22;22841;50.252;18.688;2024-02-23T11:16:32;8.90;99.90
36924;DHT22;22841;50.252;18.688;2024-02-23T11:19:06;8.90;99.90
36924;DHT22;22841;50.252;18.688;2024-02-23T11:21:38;9.00;99.90
36924;DHT22;22841;50.252;18.688;2024-02-23T11:24:05;9.00;99.90
36924;DHT22;22841;50.252;18.688;2024-02-23T11:26:31;8.90;99.90
36924;DHT22;22841;50.252;18.688;2024-02-23T11:29:10;8.90;99.90
36924;DHT22;22841;50.252;18.688;2024-02-23T11:31:36;8.90;99.90
36924;DHT22;22841;50.252;18.688;2024-02-23T11:34:09;9.00;99.90
36924;DHT22;22841;50.252;18.688;2024-02-23T11:36:38;9.00;99.90
36924;DHT22;22841;50.252;18.688;2024-02-23T11:39:04;9.00;99.90
36924;DHT22;22841;50.252;18.688;2024-02-23T11:41:31;9.10;99.90
36924;DHT22;22841;50.252;18.688;2024-02-23T11:43:57;9.10;99.90
36924;DHT22;22841;50.252;18.688;2024-02-23T11:46:26;9.10;99.90
36924;DHT22;22841;50.252;18.688;2024-02-23T11:48:52;9.20;99.90
36924;DHT22;22841;50.252;18.688;2024-02-23T11:51:22;9.20;99.90
36924;DHT22;22841;50.252;18.688;2024-02-23T11:53:49;9.20;99.90
36924;DHT22;22841;50.252;18.688;2024-02-23T11:56:16;9.20;99.90
36924;DHT22;22841;50.252;18.688;2024-02-23T11:58:43;9.20;99.90
36924;DHT22;22841;50.252;18.688;2024-02-23T12:01:09;9.20;99.90
36924;DHT22;22841;50.252;18.688;2024-02-23T12:03:35;9.20;99.90
36924;DHT22;22841;50.252;18.688;2024-02-23T12:06:02;9.10;99.90
36924;DHT22;22841;50.252;18.688;2024-02-23T12:08:30;9.10;99.90
36924;DHT22;22841;50.252;18.688;2024-02-23T12:11:04;9.10;99.90
36924;DHT22;22841;50.252;18.688;2024-02-23T12:13:31;9.10;99.90
36924;DHT22;22841;50.252;18.688;2024-02-23T12:15:58;9.10;99.90
36924;DHT22;22841;50.252;18.688;2024-02-23T12:18:24;9.10;99.90
36924;DHT22;22841;50.252;18.688;2024-02-23T12:21:04;9.10;99.90
36924;DHT22;22841;50.252;18.688;2024-02-23T12:23:44;9.20;99.90
36924;DHT22;22841;50.252;18.688;2024-02-23T12:26:13;9.20;99.90
36924;DHT22;22841;50.252;18.688;2024-02-23T12:28:40;9.20;99.90
36924;DHT22;22841;50.252;18.688;2024-02-23T12:31:06;9.30;99.90
36924;DHT22;22841;50.252;18.688;2024-02-23T12:33:34;9.30;99.90
36924;DHT22;22841;50.252;18.688;2024-02-23T12:36:01;9.30;99.90
36924;DHT22;22841;50.252;18.688;2024-02-23T12:38:28;9.30;99.90
36924;DHT22;22841;50.252;18.688;2024-02-23T12:40:54;9.40;99.90
36924;DHT22;22841;50.252;18.688;2024-02-23T12:43:21;9.40;99.90
36924;DHT22;22841;50.252;18.688;2024-02-23T12:45:53;9.40;99.90
36924;DHT22;22841;50.252;18.688;2024-02-23T12:48:21;9.40;99.90
36924;DHT22;22841;50.252;18.688;2024-02-23T12:50:48;9.40;99.90
36924;DHT22;22841;50.252;18.688;2024-02-23T12:53:34;9.40;99.90
36924;DHT22;22841;50.252;18.688;2024-02-23T12:56:12;9.30;99.90
36924;DHT22;22841;50.252;18.688;2024-02-23T12:58:41;9.30;99.90
36924;DHT22;22841;50.252;18.688;2024-02-23T13:01:07;9.30;99.90
36924;DHT22;22841;50.252;18.688;2024-02-23T13:03:35;9.30;99.90
36924;DHT22;22841;50.252;18.688;2024-02-23T13:06:02;9.30;99.90
36924;DHT22;22841;50.252;18.688;2024-02-23T13:08:28;9.30;99.90
36924;DHT22;22841;50.252;18.688;2024-02-23T13:10:55;9.40;99.90
36924;DHT22;22841;50.252;18.688;2024-02-23T13:13:22;9.40;99.90
36924;DHT22;22841;50.252;18.688;2024-02-23T13:15:50;9.30;99.90
36924;DHT22;22841;50.252;18.688;2024-02-23T13:18:16;9.20;99.90
36924;DHT22;22841;50.252;18.688;2024-02-23T13:20:42;9.20;99.90
36924;DHT22;22841;50.252;18.688;2024-02-23T13:23:09;9.20;99.90
36924;DHT22;22841;50.252;18.688;2024-02-23T13:25:36;9.30;99.90
36924;DHT22;22841;50.252;18.688;2024-02-23T13:28:02;9.20;99.90
36924;DHT22;22841;50.252;18.688;2024-02-23T13:30:29;9.20;99.90
36924;DHT22;22841;50.252;18.688;2024-02-23T13:32:55;9.20;99.90
36924;DHT22;22841;50.252;18.688;2024-02-23T13:35:21;9.20;99.90
36924;DHT22;22841;50.252;18.688;2024-02-23T13:37:47;9.20;99.90
36924;DHT22;22841;50.252;18.688;2024-02-23T13:40:14;9.30;99.90
36924;DHT22;22841;50.252;18.688;2024-02-23T13:42:40;9.20;99.90
36924;DHT22;22841;50.252;18.688;2024-02-23T13:45:07;9.20;99.90
36924;DHT22;22841;50.252;18.688;2024-02-23T13:47:35;9.10;99.90
36924;DHT22;22841;50.252;18.688;2024-02-23T13:50:02;9.10;99.90
36924;DHT22;22841;50.252;18.688;2024-02-23T13:52:29;9.10;99.90
36924;DHT22;22841;50.252;18.688;2024-02-23T13:54:56;9.00;99.90
36924;DHT22;22841;50.252;18.688;2024-02-23T13:57:22;9.00;99.90
36924;DHT22;22841;50.252;18.688;2024-02-23T13:59:48;8.90;99.90
36924;DHT22;22841;50.252;18.688;2024-02-23T14:02:14;8.90;99.90
36924;DHT22;22841;50.252;18.688;2024-02-23T14:04:41;8.90;99.90
36924;DHT22;22841;50.252;18.688;2024-02-23T14:07:07;8.80;99.90
36924;DHT22;22841;50.252;18.688;2024-02-23T14:09:33;8.80;99.90
36924;DHT22;22841;50.252;18.688;2024-02-23T14:11:59;8.70;99.90
36924;DHT22;22841;50.252;18.688;2024-02-23T14:14:26;8.70;99.90
36924;DHT22;22841;50.252;18.688;2024-02-23T14:16:52;8.70;99.90
36924;DHT22;22841;50.252;18.688;2024-02-23T14:19:18;8.70;99.90
36924;DHT22;22841;50.252;18.688;2024-02-23T14:21:46;8.70;99.90
36924;DHT22;22841;50.252;18.688;2024-02-23T14:24:14;8.70;99.90
36924;DHT22;22841;50.252;18.688;2024-02-23T14:26:40;8.70;99.90
36924;DHT22;22841;50.252;18.688;2024-02-23T14:29:06;8.70;99.90
36924;DHT22;22841;50.252;18.688;2024-02-23T14:31:32;8.70;99.90
36924;DHT22;22841;50.252;18.688;2024-02-23T14:33:58;8.60;99.90
36924;DHT22;22841;50.252;18.688;2024-02-23T14:36:24;8.60;99.90
36924;DHT22;22841;50.252;18.688;2024-02-23T14:38:50;8.60;99.90
36924;DHT22;22841;50.252;18.688;2024-02-23T14:41:17;8.60;99.90
36924;DHT22;22841;50.252;18.688;2024-02-23T14:43:43;8.70;99.90
36924;DHT22;22841;50.252;18.688;2024-02-23T14:46:09;8.70;99.90
36924;DHT22;22841;50.252;18.688;2024-02-23T14:48:35;8.70;99.90
36924;DHT22;22841;50.252;18.688;2024-02-23T14:51:01;8.70;99.90
36924;DHT22;22841;50.252;18.688;2024-02-23T14:53:29;8.70;99.90
36924;DHT22;22841;50.252;18.688;2024-02-23T14:55:55;8.60;99.90
36924;DHT22;22841;50.252;18.688;2024-02-23T14:58:22;8.60;99.90
36924;DHT22;22841;50.252;18.688;2024-02-23T15:00:48;8.60;99.90
36924;DHT22;22841;50.252;18.688;2024-02-23T15:03:14;8.60;99.90
36924;DHT22;22841;50.252;18.688;2024-02-23T15:05:40;8.60;99.90
36924;DHT22;22841;50.252;18.688;2024-02-23T15:08:07;8.60;99.90
36924;DHT22;22841;50.252;18.688;2024-02-23T15:10:33;8.50;99.90
36924;DHT22;22841;50.252;18.688;2024-02-23T15:13:00;8.50;99.90
36924;DHT22;22841;50.252;18.688;2024-02-23T15:15:26;8.50;99.90
36924;DHT22;22841;50.252;18.688;2024-02-23T15:17:52;8.50;99.90
36924;DHT22;22841;50.252;18.688;2024-02-23T15:20:18;8.40;99.90
36924;DHT22;22841;50.252;18.688;2024-02-23T15:22:45;8.40;99.90
36924;DHT22;22841;50.252;18.688;2024-02-23T15:25:12;8.40;99.90
36924;DHT22;22841;50.252;18.688;2024-02-23T15:27:38;8.40;99.90